Terminal Aerodrome Forecast
Issued by NWS

Home | Current Version | Previous Version | Text Only | Print | Product List | Glossary Off
Versions: 1 2 3 4 5 6 7 8 9 10 11 12 13 14 15 16 17

000
FTUS43 KBIS 222300
TAFDIK
TAF
KDIK 222322Z 2300/2324 13009KT P6SM SKC
     FM231400 14013KT P6SM FEW120
     FM232100 13014G22KT P6SM VCSH OVC060=

USA.gov is the U.S. government's official web portal to all federal, state and local government web resources and services.